createdAt,value
2018-12-27T00:10:09.984Z,5.9
2018-12-27T00:25:22.488Z,5.8
2018-12-27T00:40:32.194Z,5.8
2018-12-27T00:55:47.611Z,5.8
2018-12-27T01:11:00.198Z,5.8
2018-12-27T01:26:12.833Z,5.8
2018-12-27T01:41:16.378Z,5.9
2018-12-27T01:56:38.104Z,6
2018-12-27T02:11:50.820Z,6.1
2018-12-27T02:27:03.484Z,6.1
2018-12-27T02:42:16.235Z,6.2
2018-12-27T02:57:28.154Z,6.2
2018-12-27T03:12:41.787Z,6.4
2018-12-27T03:27:54.468Z,6.4
2018-12-27T03:43:07.316Z,6.5
2018-12-27T03:58:13.530Z,6.5
2018-12-27T04:13:32.972Z,6.7
2018-12-27T04:28:45.962Z,6.6
2018-12-27T04:43:58.754Z,6.8
2018-12-27T04:59:11.716Z,6.8
2018-12-27T05:14:24.641Z,6.9
2018-12-27T05:29:37.569Z,6.7
2018-12-27T05:44:50.552Z,6.8
2018-12-27T06:00:03.599Z,7
2018-12-27T06:15:12.571Z,7.2
2018-12-27T06:30:29.693Z,7.3
2018-12-27T06:45:42.813Z,7.3
2018-12-27T07:00:56.013Z,7.4
2018-12-27T07:15:58.803Z,7.4
2018-12-27T07:31:22.293Z,7.4
2018-12-27T07:46:35.510Z,7.5
2018-12-27T08:01:48.768Z,7.6
2018-12-27T08:17:02.088Z,7.7
2018-12-27T08:32:12.397Z,7.8
2018-12-27T08:47:28.695Z,7.9
2018-12-27T09:02:42.119Z,8
2018-12-27T09:17:55.703Z,8.1
2018-12-27T09:32:59.643Z,8.1
2018-12-27T09:48:22.435Z,8.1
2018-12-27T10:03:35.776Z,8.2
2018-12-27T10:18:49.940Z,8.2
2018-12-27T10:34:02.726Z,8.3
2018-12-27T10:49:14.186Z,8.6
2018-12-27T11:04:31.148Z,9.1
2018-12-27T11:19:47.890Z,9.3
2018-12-27T11:35:03.429Z,9.5
2018-12-27T11:50:18.199Z,9.7
2018-12-27T12:05:30.008Z,9.9
2018-12-27T12:20:47.620Z,10
2018-12-27T12:36:10.491Z,9.9
2018-12-27T12:51:23.094Z,9.9
2018-12-27T13:06:39.952Z,10.1
2018-12-27T13:21:46.203Z,9.8
2018-12-27T13:37:08.772Z,9.8
2018-12-27T13:52:24.467Z,10.3
2018-12-27T14:07:39.818Z,9.9
2018-12-27T14:22:54.520Z,9.5
2018-12-27T14:38:02.281Z,9
2018-12-27T14:53:21.975Z,8.3
2018-12-27T15:08:35.520Z,8
2018-12-27T15:23:48.756Z,7.5
2018-12-27T15:39:01.815Z,7.3
2018-12-27T15:54:15.255Z,7.1
2018-12-27T16:09:27.963Z,7
2018-12-27T16:24:41.021Z,6.9
2018-12-27T16:39:53.960Z,6.7
2018-12-27T16:55:02.257Z,6.6
2018-12-27T17:10:19.867Z,6.6
2018-12-27T17:25:32.653Z,6.6
2018-12-27T17:40:45.872Z,6.5
2018-12-27T17:55:58.308Z,6.7
2018-12-27T18:11:11.106Z,6.7
2018-12-27T18:26:24.001Z,6.7
2018-12-27T18:41:36.887Z,6.7
2018-12-27T18:56:49.829Z,6.7
2018-12-27T19:12:01.234Z,6.7
2018-12-27T19:27:15.863Z,6.7
2018-12-27T19:42:28.561Z,6.6
2018-12-27T19:57:41.371Z,6.5
2018-12-27T20:12:46.786Z,6.5
2018-12-27T20:28:07.081Z,6.4
2018-12-27T20:43:19.904Z,6.4
2018-12-27T20:58:32.592Z,6.5
2018-12-27T21:13:45.459Z,6.4
2018-12-27T21:28:58.885Z,6.5
2018-12-27T21:44:10.979Z,6.5
2018-12-27T21:59:23.826Z,6.5
2018-12-27T22:14:36.775Z,6.5
2018-12-27T22:29:44.863Z,6.6
2018-12-27T22:45:02.516Z,6.7
2018-12-27T23:00:15.326Z,6.7
2018-12-27T23:15:28.246Z,6.6
2018-12-27T23:30:41.002Z,6.7
2018-12-27T23:45:53.947Z,6.7
